createdAt,value
2023-08-21T00:00:05.762Z,24.40
2023-08-21T00:03:41.928Z,24.37
2023-08-21T00:06:24.041Z,24.35
2023-08-21T00:09:12.802Z,24.35
2023-08-21T00:11:54.761Z,24.36
2023-08-21T00:14:36.854Z,24.36
2023-08-21T00:17:18.754Z,24.37
2023-08-21T00:20:16.767Z,24.36
2023-08-21T00:23:12.764Z,24.36
2023-08-21T00:25:55.023Z,24.35
2023-08-21T00:28:43.763Z,24.33
2023-08-21T00:31:19.097Z,24.32
2023-08-21T00:34:07.803Z,24.30
2023-08-21T00:36:43.028Z,24.27
2023-08-21T00:39:31.759Z,24.24
2023-08-21T00:42:08.539Z,24.21
2023-08-21T00:44:57.757Z,24.19
2023-08-21T00:47:33.082Z,24.17
2023-08-21T00:50:22.762Z,24.15
2023-08-21T00:53:04.855Z,24.16
2023-08-21T00:55:47.767Z,24.19
2023-08-21T00:58:29.842Z,24.21
2023-08-21T01:01:12.768Z,24.24
2023-08-21T01:03:54.828Z,24.24
2023-08-21T01:06:36.747Z,24.23
2023-08-21T01:09:18.793Z,24.22
2023-08-21T01:12:01.870Z,24.21
2023-08-21T01:15:08.781Z,24.20
2023-08-21T01:17:44.874Z,24.18
2023-08-21T01:20:40.790Z,24.15
2023-08-21T01:23:47.763Z,24.11
2023-08-21T01:26:30.029Z,24.06
2023-08-21T01:29:18.770Z,24.02
2023-08-21T01:32:11.242Z,23.98
2023-08-21T01:35:00.762Z,23.96
2023-08-21T01:37:37.066Z,23.98
2023-08-21T01:40:25.778Z,24.00
2023-08-21T01:43:01.089Z,23.98
2023-08-21T01:45:49.816Z,23.96
2023-08-21T01:48:25.044Z,23.93
2023-08-21T01:51:17.763Z,23.89
2023-08-21T01:53:53.099Z,23.85
2023-08-21T01:56:34.892Z,23.81
2023-08-21T01:59:16.763Z,23.76
2023-08-21T02:01:58.868Z,23.73
2023-08-21T02:04:40.778Z,23.69
2023-08-21T02:07:22.796Z,23.67
2023-08-21T02:09:57.854Z,23.68
2023-08-21T02:12:46.982Z,23.69
2023-08-21T02:15:23.685Z,23.70
2023-08-21T02:18:12.777Z,23.69
2023-08-21T02:20:49.889Z,23.67
2023-08-21T02:23:38.747Z,23.64
2023-08-21T02:26:13.841Z,23.61
2023-08-21T02:29:09.759Z,23.58
2023-08-21T02:32:06.774Z,23.53
2023-08-21T02:34:49.059Z,23.49
2023-08-21T02:37:37.776Z,23.48
2023-08-21T02:40:13.026Z,23.48
2023-08-21T02:43:01.766Z,23.47
2023-08-21T02:45:37.019Z,23.46
2023-08-21T02:48:25.748Z,23.43
2023-08-21T02:51:02.500Z,23.41
2023-08-21T02:53:52.770Z,23.39
2023-08-21T02:56:28.024Z,23.36
2023-08-21T02:59:16.765Z,23.35
2023-08-21T03:01:52.069Z,23.33
2023-08-21T03:04:40.737Z,23.31
2023-08-21T03:07:16.573Z,23.31
2023-08-21T03:10:05.757Z,23.31
2023-08-21T03:12:41.329Z,23.29
2023-08-21T03:15:30.753Z,23.28
2023-08-21T03:18:06.155Z,23.23
2023-08-21T03:21:00.764Z,23.19
2023-08-21T03:23:36.040Z,23.16
2023-08-21T03:26:24.754Z,23.15
2023-08-21T03:29:00.029Z,23.15
2023-08-21T03:31:48.773Z,23.16
2023-08-21T03:34:24.163Z,23.15
2023-08-21T03:37:12.791Z,23.07
2023-08-21T03:39:54.765Z,23.00
2023-08-21T03:42:37.139Z,22.94
2023-08-21T03:45:19.767Z,22.90
2023-08-21T03:48:01.889Z,22.86
2023-08-21T03:50:37.317Z,22.81
2023-08-21T03:53:18.750Z,22.76
2023-08-21T03:55:53.834Z,22.75
2023-08-21T03:58:29.024Z,22.74
2023-08-21T04:01:10.746Z,22.75
2023-08-21T04:03:46.912Z,22.75
2023-08-21T04:06:22.087Z,22.78
2023-08-21T04:09:03.748Z,22.83
2023-08-21T04:11:45.965Z,22.85
2023-08-21T04:14:21.024Z,22.88
2023-08-21T04:17:09.769Z,22.88
2023-08-21T04:19:58.751Z,22.88
2023-08-21T04:22:54.777Z,22.86
2023-08-21T04:25:50.759Z,22.88
2023-08-21T04:28:33.466Z,22.83
2023-08-21T04:31:22.790Z,22.80
2023-08-21T04:33:57.992Z,22.81
2023-08-21T04:36:46.808Z,22.83
2023-08-21T04:39:21.982Z,22.80
2023-08-21T04:42:10.773Z,22.75
2023-08-21T04:44:46.089Z,22.71
2023-08-21T04:47:39.751Z,22.70
2023-08-21T04:50:16.905Z,22.70
2023-08-21T04:53:05.746Z,22.73
2023-08-21T04:55:41.868Z,22.76
2023-08-21T04:58:23.820Z,22.77
2023-08-21T05:01:06.773Z,22.79
2023-08-21T05:03:48.923Z,22.79
2023-08-21T05:06:31.751Z,22.79
2023-08-21T05:09:13.778Z,22.79
2023-08-21T05:11:48.809Z,22.76
2023-08-21T05:14:37.778Z,22.76
2023-08-21T05:17:13.899Z,22.75
2023-08-21T05:20:09.821Z,22.70
2023-08-21T05:23:05.761Z,22.53
2023-08-21T05:26:02.714Z,22.37
2023-08-21T05:28:58.758Z,22.27
2023-08-21T05:31:54.753Z,22.13
2023-08-21T05:34:50.757Z,21.99
2023-08-21T05:37:46.730Z,21.88
2023-08-21T05:40:35.738Z,21.71
2023-08-21T05:43:11.165Z,21.58
2023-08-21T05:45:59.738Z,21.53
2023-08-21T05:48:35.325Z,21.48
2023-08-21T05:51:23.756Z,21.45
2023-08-21T05:53:59.821Z,21.44
2023-08-21T05:56:48.744Z,21.40
2023-08-21T05:59:34.840Z,21.35
2023-08-21T06:02:23.764Z,21.27
2023-08-21T06:04:59.331Z,21.25
2023-08-21T06:07:50.763Z,21.27
2023-08-21T06:10:26.824Z,21.31
2023-08-21T06:13:15.773Z,21.33
2023-08-21T06:15:51.826Z,21.36
2023-08-21T06:18:34.036Z,21.38
2023-08-21T06:21:22.754Z,21.41
2023-08-21T06:24:18.766Z,21.44
2023-08-21T06:27:14.804Z,21.50
2023-08-21T06:30:10.751Z,21.55
2023-08-21T06:33:06.792Z,21.57
2023-08-21T06:36:02.753Z,21.59
2023-08-21T06:38:58.788Z,21.61
2023-08-21T06:41:54.753Z,21.66
2023-08-21T06:44:43.751Z,21.72
2023-08-21T06:47:18.850Z,21.75
2023-08-21T06:50:07.749Z,21.79
2023-08-21T06:52:42.885Z,21.87
2023-08-21T06:55:31.757Z,21.93
2023-08-21T06:58:06.862Z,21.96
2023-08-21T07:00:55.795Z,22.00
2023-08-21T07:03:31.857Z,22.05
2023-08-21T07:06:20.773Z,22.09
2023-08-21T07:08:55.824Z,22.11
2023-08-21T07:11:44.817Z,22.13
2023-08-21T07:14:27.764Z,22.17
2023-08-21T07:17:10.021Z,22.23
2023-08-21T07:20:00.767Z,22.29
2023-08-21T07:22:56.744Z,22.34
2023-08-21T07:25:52.770Z,22.40
2023-08-21T07:28:48.751Z,22.48
2023-08-21T07:31:44.831Z,22.53
2023-08-21T07:34:40.787Z,22.59
2023-08-21T07:37:36.767Z,22.66
2023-08-21T07:40:25.745Z,22.73
2023-08-21T07:43:01.811Z,22.77
2023-08-21T07:45:50.781Z,22.81
2023-08-21T07:48:26.954Z,22.81
2023-08-21T07:51:15.754Z,22.77
2023-08-21T07:53:50.828Z,22.75
2023-08-21T07:56:39.759Z,22.76
2023-08-21T07:59:16.043Z,22.78
2023-08-21T08:02:04.708Z,22.81
2023-08-21T08:04:39.808Z,22.85
2023-08-21T08:07:28.763Z,22.89
2023-08-21T08:10:03.848Z,22.90
2023-08-21T08:12:52.825Z,22.92
2023-08-21T08:15:28.838Z,22.93
2023-08-21T08:18:14.856Z,22.96
2023-08-21T08:21:03.738Z,22.99
2023-08-21T08:23:39.346Z,23.01
2023-08-21T08:26:27.741Z,23.02
2023-08-21T08:29:03.033Z,23.04
2023-08-21T08:31:51.781Z,23.06
2023-08-21T08:34:33.744Z,23.07
2023-08-21T08:37:15.842Z,23.09
2023-08-21T08:40:04.761Z,23.14
2023-08-21T08:42:41.875Z,23.20
2023-08-21T08:45:38.764Z,23.25
2023-08-21T08:48:14.864Z,23.31
2023-08-21T08:51:03.759Z,23.35
2023-08-21T08:53:39.784Z,23.41
2023-08-21T08:56:28.756Z,23.47
2023-08-21T08:59:03.827Z,23.53
2023-08-21T09:01:52.770Z,23.62
2023-08-21T09:04:28.806Z,23.68
2023-08-21T09:07:12.753Z,23.72
2023-08-21T09:10:00.748Z,23.76
2023-08-21T09:12:41.074Z,23.80
2023-08-21T09:15:18.824Z,23.87
2023-08-21T09:18:01.789Z,23.95
2023-08-21T09:20:50.734Z,24.03
2023-08-21T09:23:46.756Z,24.14
2023-08-21T09:26:44.724Z,24.23
2023-08-21T09:29:27.069Z,24.32
2023-08-21T09:32:15.720Z,24.43
2023-08-21T09:34:51.018Z,24.51
2023-08-21T09:37:43.717Z,24.59
2023-08-21T09:40:19.033Z,24.67
2023-08-21T09:43:08.763Z,24.77
2023-08-21T09:45:47.368Z,24.88
2023-08-21T09:48:40.757Z,25.00
2023-08-21T09:51:16.123Z,25.13
2023-08-21T09:54:04.835Z,25.23
2023-08-21T09:56:40.022Z,25.32
2023-08-21T09:59:36.747Z,25.42
2023-08-21T10:02:32.739Z,25.49
2023-08-21T10:05:33.776Z,25.57
2023-08-21T10:08:30.765Z,25.65
2023-08-21T10:11:26.747Z,25.71
2023-08-21T10:14:22.730Z,25.78
2023-08-21T10:17:19.773Z,25.87
2023-08-21T10:20:20.765Z,25.96
2023-08-21T10:23:16.753Z,26.06
2023-08-21T10:26:06.735Z,26.15
2023-08-21T10:29:03.746Z,26.21
2023-08-21T10:31:59.725Z,26.29
2023-08-21T10:35:06.744Z,26.33
2023-08-21T10:38:27.742Z,26.43
2023-08-21T10:41:23.731Z,26.53
2023-08-21T10:44:20.745Z,26.62
2023-08-21T10:47:31.794Z,26.75
2023-08-21T10:50:27.738Z,26.83
2023-08-21T10:53:16.755Z,26.90
2023-08-21T10:56:00.826Z,26.92
2023-08-21T10:58:50.760Z,26.93
2023-08-21T11:01:25.874Z,26.93
2023-08-21T11:04:14.736Z,26.98
2023-08-21T11:06:49.818Z,27.05
2023-08-21T11:09:38.731Z,27.10
2023-08-21T11:12:17.916Z,27.14
2023-08-21T11:15:06.898Z,27.20
2023-08-21T11:17:42.857Z,27.29
2023-08-21T11:20:45.761Z,27.39
2023-08-21T11:23:46.747Z,27.47
2023-08-21T11:26:42.767Z,27.49
2023-08-21T11:29:39.750Z,27.45
2023-08-21T11:32:38.760Z,27.42
2023-08-21T11:35:22.126Z,27.47
2023-08-21T11:38:10.745Z,27.54
2023-08-21T11:41:03.858Z,27.59
2023-08-21T11:43:56.727Z,27.68
2023-08-21T11:46:32.176Z,27.80
2023-08-21T11:49:20.767Z,27.89
2023-08-21T11:51:56.447Z,27.87
2023-08-21T11:54:48.737Z,27.91
2023-08-21T11:57:24.088Z,28.04
2023-08-21T12:00:13.757Z,28.11
2023-08-21T12:03:09.774Z,28.18
2023-08-21T12:05:58.756Z,28.23
2023-08-21T12:08:34.071Z,28.26
2023-08-21T12:11:15.875Z,28.34
2023-08-21T12:13:59.725Z,28.40
2023-08-21T12:16:48.748Z,28.48
2023-08-21T12:19:44.758Z,28.56
2023-08-21T12:22:40.750Z,28.60
2023-08-21T12:25:36.780Z,28.64
2023-08-21T12:28:32.733Z,28.76
2023-08-21T12:31:28.769Z,28.88
2023-08-21T12:34:11.016Z,28.99
2023-08-21T12:36:59.775Z,29.11
2023-08-21T12:39:35.044Z,29.24
2023-08-21T12:42:23.760Z,29.35
2023-08-21T12:45:05.770Z,29.32
2023-08-21T12:47:47.900Z,29.22
2023-08-21T12:50:29.759Z,29.21
2023-08-21T12:53:11.830Z,29.33
2023-08-21T12:55:53.763Z,29.41
2023-08-21T12:58:36.835Z,29.50
2023-08-21T13:01:18.795Z,29.52
2023-08-21T13:04:00.875Z,29.49
2023-08-21T13:06:49.783Z,29.47
2023-08-21T13:09:26.437Z,29.53
2023-08-21T13:12:15.743Z,29.64
2023-08-21T13:14:57.837Z,29.73
2023-08-21T13:17:53.781Z,29.86
2023-08-21T13:20:49.748Z,29.96
2023-08-21T13:23:45.783Z,30.01
2023-08-21T13:26:41.783Z,30.05
2023-08-21T13:29:37.768Z,30.14
2023-08-21T13:32:33.794Z,30.22
2023-08-21T13:35:30.762Z,30.32
2023-08-21T13:38:33.576Z,30.45
2023-08-21T13:41:29.782Z,30.57
2023-08-21T13:44:25.756Z,30.67
2023-08-21T13:47:14.784Z,30.70
2023-08-21T13:49:49.852Z,30.66
2023-08-21T13:52:38.752Z,30.67
2023-08-21T13:55:14.844Z,30.69
2023-08-21T13:58:04.771Z,30.74
2023-08-21T14:00:40.916Z,30.78
2023-08-21T14:03:29.779Z,30.82
2023-08-21T14:06:04.859Z,30.87
2023-08-21T14:08:53.776Z,30.88
2023-08-21T14:11:29.893Z,30.88
2023-08-21T14:14:18.746Z,30.86
2023-08-21T14:17:07.777Z,30.83
2023-08-21T14:20:03.742Z,30.79
2023-08-21T14:22:59.780Z,30.77
2023-08-21T14:25:55.801Z,30.76
2023-08-21T14:28:57.768Z,30.71
2023-08-21T14:31:40.018Z,30.66
2023-08-21T14:34:29.752Z,30.62
2023-08-21T14:37:05.529Z,30.57
2023-08-21T14:39:54.734Z,30.56
2023-08-21T14:42:29.996Z,30.59
2023-08-21T14:45:19.728Z,30.63
2023-08-21T14:47:55.101Z,30.65
2023-08-21T14:50:43.740Z,30.63
2023-08-21T14:53:19.042Z,30.60
2023-08-21T14:56:07.777Z,30.58
2023-08-21T14:58:44.660Z,30.57
2023-08-21T15:01:26.902Z,30.53
2023-08-21T15:04:09.829Z,30.45
2023-08-21T15:06:52.879Z,30.36
2023-08-21T15:09:37.347Z,30.25
2023-08-21T15:12:20.836Z,30.19
2023-08-21T15:15:02.773Z,30.15
2023-08-21T15:17:44.766Z,30.14
2023-08-21T15:20:22.288Z,30.12
2023-08-21T15:23:17.759Z,30.09
2023-08-21T15:26:13.776Z,29.97
2023-08-21T15:28:56.059Z,29.96
2023-08-21T15:31:44.774Z,29.92
2023-08-21T15:34:20.077Z,29.83
2023-08-21T15:37:08.903Z,29.77
2023-08-21T15:39:44.178Z,29.70
2023-08-21T15:42:25.984Z,29.62
2023-08-21T15:45:07.883Z,29.49
2023-08-21T15:47:56.817Z,29.40
2023-08-21T15:50:52.750Z,29.34
2023-08-21T15:53:48.773Z,29.29
2023-08-21T15:56:44.911Z,29.22
2023-08-21T15:59:40.787Z,29.10
2023-08-21T16:02:36.937Z,28.99
2023-08-21T16:05:33.751Z,28.90
2023-08-21T16:08:29.799Z,28.84
2023-08-21T16:11:12.021Z,28.76
2023-08-21T16:14:00.777Z,28.66
2023-08-21T16:16:36.564Z,28.56
2023-08-21T16:19:25.870Z,28.47
2023-08-21T16:22:14.750Z,28.36
2023-08-21T16:25:10.739Z,28.24
2023-08-21T16:28:06.774Z,28.12
2023-08-21T16:31:02.781Z,28.01
2023-08-21T16:33:58.890Z,27.89
2023-08-21T16:36:54.916Z,27.78
2023-08-21T16:39:50.847Z,27.68
2023-08-21T16:42:33.135Z,27.57
2023-08-21T16:45:23.765Z,27.49
2023-08-21T16:47:59.510Z,27.42
2023-08-21T16:50:48.762Z,27.33
2023-08-21T16:53:24.549Z,27.27
2023-08-21T16:56:13.764Z,27.20
2023-08-21T16:58:49.037Z,27.15
2023-08-21T17:01:37.802Z,27.09
2023-08-21T17:04:13.113Z,27.05
2023-08-21T17:07:01.766Z,26.99
2023-08-21T17:09:37.091Z,26.94
2023-08-21T17:12:26.754Z,26.89
2023-08-21T17:15:22.818Z,26.83
2023-08-21T17:18:18.774Z,26.75
2023-08-21T17:21:14.755Z,26.68
2023-08-21T17:24:10.763Z,26.61
2023-08-21T17:27:06.756Z,26.54
2023-08-21T17:30:02.760Z,26.49
2023-08-21T17:32:58.757Z,26.42
2023-08-21T17:35:54.791Z,26.35
2023-08-21T17:38:43.789Z,26.26
2023-08-21T17:41:19.845Z,26.20
2023-08-21T17:44:08.762Z,26.15
2023-08-21T17:46:44.090Z,26.09
2023-08-21T17:49:32.787Z,26.04
2023-08-21T17:52:08.970Z,25.99
2023-08-21T17:54:57.765Z,25.94
2023-08-21T17:57:32.903Z,25.88
2023-08-21T18:00:22.748Z,25.82
2023-08-21T18:02:57.861Z,25.77
2023-08-21T18:05:46.757Z,25.71
2023-08-21T18:08:28.844Z,25.65
2023-08-21T18:11:11.257Z,25.61
2023-08-21T18:13:59.754Z,25.56
2023-08-21T18:16:35.177Z,25.51
2023-08-21T18:19:30.642Z,25.46
2023-08-21T18:22:25.768Z,25.41
2023-08-21T18:25:08.192Z,25.36
2023-08-21T18:27:56.741Z,25.32
2023-08-21T18:30:38.932Z,25.29
2023-08-21T18:33:27.797Z,25.24
2023-08-21T18:36:09.778Z,25.22
2023-08-21T18:38:51.991Z,25.17
2023-08-21T18:41:35.765Z,25.14
2023-08-21T18:44:17.869Z,25.12
2023-08-21T18:46:59.771Z,25.09
2023-08-21T18:49:41.841Z,25.05
2023-08-21T18:52:23.726Z,25.02
2023-08-21T18:55:07.069Z,24.98
2023-08-21T18:57:55.799Z,24.96
2023-08-21T19:00:31.949Z,24.93
2023-08-21T19:03:20.821Z,24.90
2023-08-21T19:05:56.839Z,24.87
2023-08-21T19:08:46.772Z,24.84
2023-08-21T19:11:25.521Z,24.82
2023-08-21T19:14:14.805Z,24.81
2023-08-21T19:16:55.205Z,24.79
2023-08-21T19:19:44.814Z,24.76
2023-08-21T19:22:22.869Z,24.75
2023-08-21T19:25:12.777Z,24.71
2023-08-21T19:27:47.974Z,24.68
2023-08-21T19:30:36.829Z,24.66
2023-08-21T19:33:21.874Z,24.63
2023-08-21T19:36:03.780Z,24.59
2023-08-21T19:38:53.796Z,24.56
2023-08-21T19:41:29.047Z,24.52
2023-08-21T19:44:17.755Z,24.49
2023-08-21T19:46:53.043Z,24.46
2023-08-21T19:49:42.768Z,24.42
2023-08-21T19:52:18.021Z,24.38
2023-08-21T19:55:06.757Z,24.34
2023-08-21T19:57:42.327Z,24.31
2023-08-21T20:00:31.784Z,24.27
2023-08-21T20:03:07.110Z,24.24
2023-08-21T20:05:55.812Z,24.21
2023-08-21T20:08:31.793Z,24.17
2023-08-21T20:11:20.785Z,24.15
2023-08-21T20:13:56.178Z,24.14
2023-08-21T20:16:44.773Z,24.12
2023-08-21T20:19:20.290Z,24.08
2023-08-21T20:22:08.795Z,24.06
2023-08-21T20:25:04.754Z,24.05
2023-08-21T20:28:00.767Z,24.03
2023-08-21T20:30:57.778Z,24.02
2023-08-21T20:33:46.803Z,24.01
2023-08-21T20:36:21.837Z,24.00
2023-08-21T20:39:10.774Z,23.99
2023-08-21T20:41:45.854Z,23.98
2023-08-21T20:44:34.757Z,23.97
2023-08-21T20:47:10.961Z,23.95
2023-08-21T20:49:59.751Z,23.93
2023-08-21T20:52:34.863Z,23.91
2023-08-21T20:55:23.886Z,23.90
2023-08-21T20:57:59.854Z,23.87
2023-08-21T21:00:48.785Z,23.85
2023-08-21T21:03:24.177Z,23.82
2023-08-21T21:06:12.790Z,23.80
2023-08-21T21:08:47.825Z,23.76
2023-08-21T21:11:30.058Z,23.73
2023-08-21T21:14:11.786Z,23.70
2023-08-21T21:16:47.841Z,23.68
2023-08-21T21:19:23.572Z,23.65
2023-08-21T21:22:12.747Z,23.61
2023-08-21T21:25:08.778Z,23.59
2023-08-21T21:28:04.785Z,23.55
2023-08-21T21:31:00.796Z,23.53
2023-08-21T21:33:59.795Z,23.51
2023-08-21T21:36:49.765Z,23.47
2023-08-21T21:39:24.838Z,23.43
2023-08-21T21:42:20.757Z,23.41
2023-08-21T21:45:16.772Z,23.38
2023-08-21T21:48:05.855Z,23.35
2023-08-21T21:50:47.774Z,23.30
2023-08-21T21:53:34.849Z,23.28
2023-08-21T21:56:16.773Z,23.26
2023-08-21T21:58:58.860Z,23.27
2023-08-21T22:01:40.846Z,23.27
2023-08-21T22:04:22.927Z,23.26
2023-08-21T22:07:04.770Z,23.23
2023-08-21T22:09:47.587Z,23.21
2023-08-21T22:12:36.782Z,23.18
2023-08-21T22:15:14.695Z,23.13
2023-08-21T22:18:04.789Z,23.08
2023-08-21T22:21:00.752Z,23.05
2023-08-21T22:23:56.774Z,23.02
2023-08-21T22:26:52.929Z,23.00
2023-08-21T22:29:48.869Z,22.97
2023-08-21T22:32:44.836Z,22.93
2023-08-21T22:35:33.787Z,22.89
2023-08-21T22:38:08.848Z,22.84
2023-08-21T22:40:51.057Z,22.79
2023-08-21T22:43:33.865Z,22.76
2023-08-21T22:46:13.013Z,22.75
2023-08-21T22:48:49.028Z,22.74
2023-08-21T22:51:30.759Z,22.77
2023-08-21T22:54:05.986Z,22.79
2023-08-21T22:56:41.048Z,22.80
2023-08-21T22:59:22.751Z,22.81
2023-08-21T23:01:57.899Z,22.79
2023-08-21T23:04:33.104Z,22.78
2023-08-21T23:07:14.767Z,22.76
2023-08-21T23:09:50.842Z,22.73
2023-08-21T23:12:26.021Z,22.70
2023-08-21T23:15:07.764Z,22.66
2023-08-21T23:17:43.087Z,22.62
2023-08-21T23:20:19.007Z,22.59
2023-08-21T23:23:07.770Z,22.55
2023-08-21T23:25:53.834Z,22.51
2023-08-21T23:28:43.904Z,22.47
2023-08-21T23:31:19.303Z,22.41
2023-08-21T23:34:07.904Z,22.37
2023-08-21T23:36:42.997Z,22.29
2023-08-21T23:39:31.744Z,22.24
2023-08-21T23:42:07.538Z,22.19
2023-08-21T23:44:56.751Z,22.16
2023-08-21T23:47:32.020Z,22.16
2023-08-21T23:50:21.756Z,22.14
2023-08-21T23:52:58.113Z,22.11
2023-08-21T23:55:44.404Z,22.05
2023-08-21T23:58:25.750Z,22.01
